createdAt,value
2018-12-01T00:02:26.728Z,32.63
2018-12-01T00:07:44.161Z,31.63
2018-12-01T00:12:46.564Z,29.90
2018-12-01T00:17:48.947Z,31.17
2018-12-01T00:22:51.312Z,32.50
2018-12-01T00:27:53.644Z,33.50
2018-12-01T00:32:56.421Z,31.73
2018-12-01T00:37:58.908Z,34.47
2018-12-01T00:43:01.260Z,30.10
2018-12-01T00:48:03.609Z,29.87
2018-12-01T00:53:06.106Z,28.73
2018-12-01T00:58:08.484Z,29.40
2018-12-01T01:03:10.788Z,31.00
2018-12-01T01:08:13.296Z,33.60
2018-12-01T01:13:15.711Z,30.70
2018-12-01T01:18:18.031Z,28.53
2018-12-01T01:23:20.404Z,26.80
2018-12-01T01:28:22.700Z,29.20
2018-12-01T01:33:28.451Z,29.37
2018-12-01T01:38:30.979Z,25.77
2018-12-01T01:49:00.420Z,28.53
2018-12-01T01:54:02.874Z,27.63
2018-12-01T01:59:05.227Z,29.13
2018-12-01T02:04:07.564Z,29.10
2018-12-01T02:09:09.972Z,27.03
2018-12-01T02:14:12.291Z,27.87
2018-12-01T02:19:14.634Z,28.13
2018-12-01T02:24:17.249Z,27.93
2018-12-01T02:29:19.609Z,26.77
2018-12-01T02:34:21.943Z,31.43
2018-12-01T02:39:24.429Z,26.03
2018-12-01T02:45:36.081Z,27.10
2018-12-01T02:50:38.389Z,31.10
2018-12-01T02:55:40.763Z,29.80
2018-12-01T03:00:43.117Z,28.17
2018-12-01T03:05:45.413Z,29.93
2018-12-01T03:10:47.749Z,30.53
2018-12-01T03:15:50.058Z,28.67
2018-12-01T03:20:52.363Z,31.23
2018-12-01T03:25:55.000Z,27.93
2018-12-01T03:30:57.381Z,29.03
2018-12-01T03:35:59.742Z,27.23
2018-12-01T03:41:02.178Z,25.13
2018-12-01T03:46:04.900Z,28.93
2018-12-01T03:51:07.512Z,27.90
2018-12-01T03:56:09.897Z,26.20
2018-12-01T04:01:12.265Z,25.40
2018-12-01T04:06:14.563Z,27.67
2018-12-01T04:11:16.929Z,26.53
2018-12-01T04:16:19.247Z,25.07
2018-12-01T04:21:21.548Z,26.10
2018-12-01T04:26:24.099Z,26.83
2018-12-01T04:31:26.465Z,27.40
2018-12-01T04:36:29.864Z,29.87
2018-12-01T04:41:32.409Z,25.67
2018-12-01T04:46:34.800Z,28.03
2018-12-01T04:51:37.191Z,25.73
2018-12-01T04:56:39.686Z,26.00
2018-12-01T05:01:42.322Z,28.43
2018-12-01T05:06:44.761Z,28.37
2018-12-01T05:11:47.235Z,32.87
2018-12-01T05:16:49.960Z,28.17
2018-12-01T05:21:52.352Z,28.97
2018-12-01T05:26:54.701Z,29.53
2018-12-01T05:31:57.105Z,31.07
2018-12-01T05:36:59.527Z,29.77
2018-12-01T05:42:02.644Z,28.17
2018-12-01T05:47:05.476Z,34.83
2018-12-01T05:52:07.972Z,30.57
2018-12-01T05:57:10.374Z,30.07
2018-12-01T06:02:12.714Z,26.93
2018-12-01T06:07:15.060Z,27.40
2018-12-01T06:12:17.492Z,25.70
2018-12-01T06:17:19.987Z,29.00
2018-12-01T06:22:22.352Z,27.03
2018-12-01T06:27:24.711Z,27.10
2018-12-01T06:32:27.065Z,25.27
2018-12-01T06:37:30.532Z,26.87
2018-12-01T06:42:32.931Z,26.40
2018-12-01T06:47:35.283Z,23.00
2018-12-01T06:52:37.729Z,23.33
2018-12-01T06:57:40.289Z,21.17
2018-12-01T07:02:43.185Z,19.67
2018-12-01T07:07:45.591Z,23.07
2018-12-01T07:12:58.204Z,22.37
2018-12-01T07:18:00.619Z,21.80
2018-12-01T07:23:02.980Z,20.23
2018-12-01T07:28:05.362Z,21.73
2018-12-01T07:33:07.704Z,19.20
2018-12-01T07:38:10.064Z,22.40
2018-12-01T07:43:12.493Z,20.73
2018-12-01T07:48:14.829Z,22.83
2018-12-01T07:53:17.534Z,19.73
2018-12-01T07:58:19.707Z,20.87
2018-12-01T08:03:22.823Z,19.00
2018-12-01T08:08:25.322Z,20.90
2018-12-01T08:13:27.808Z,21.27
2018-12-01T08:18:30.166Z,19.23
2018-12-01T08:23:32.507Z,19.87
2018-12-01T08:28:35.877Z,22.13
2018-12-01T08:33:38.221Z,20.67
2018-12-01T08:38:40.675Z,21.47
2018-12-01T08:43:43.051Z,17.10
2018-12-01T08:48:45.436Z,17.60
2018-12-01T08:53:47.806Z,16.93
2018-12-01T08:58:53.128Z,17.87
2018-12-01T09:03:55.568Z,15.77
2018-12-01T09:08:57.975Z,15.77
2018-12-01T09:14:00.334Z,16.23
2018-12-01T09:19:03.155Z,14.33
2018-12-01T09:24:06.147Z,14.30
2018-12-01T09:29:08.492Z,14.87
2018-12-01T09:34:10.819Z,12.93
2018-12-01T09:39:13.148Z,14.20
2018-12-01T09:44:17.329Z,15.10
2018-12-01T09:49:18.603Z,16.10
2018-12-01T09:54:20.980Z,16.23
2018-12-01T09:59:23.351Z,15.87
2018-12-01T10:04:25.687Z,12.60
2018-12-01T10:09:28.183Z,15.37
2018-12-01T10:14:30.584Z,14.10
2018-12-01T10:19:32.931Z,13.47
2018-12-01T10:24:35.316Z,17.27
2018-12-01T10:29:37.702Z,13.13
2018-12-01T10:34:40.055Z,13.50
2018-12-01T10:39:42.399Z,12.70
2018-12-01T10:44:44.816Z,12.17
2018-12-01T10:49:47.193Z,12.03
2018-12-01T10:54:49.579Z,10.23
2018-12-01T10:59:51.903Z,15.13
2018-12-01T11:04:54.228Z,12.77
2018-12-01T11:09:56.647Z,11.03
2018-12-01T11:14:59.055Z,15.33
2018-12-01T11:20:01.451Z,10.53
2018-12-01T11:25:06.276Z,13.77
2018-12-01T11:30:13.047Z,11.93
2018-12-01T11:35:15.502Z,12.80
2018-12-01T11:40:18.676Z,13.33
2018-12-01T11:45:21.099Z,9.80
2018-12-01T11:50:23.580Z,10.10
2018-12-01T11:55:25.943Z,10.77
2018-12-01T12:00:28.295Z,8.90
2018-12-01T12:05:30.674Z,9.73
2018-12-01T12:10:33.008Z,10.13
2018-12-01T12:15:35.443Z,7.30
2018-12-01T12:20:38.093Z,8.37
2018-12-01T12:25:40.527Z,8.33
2018-12-01T12:30:42.937Z,6.93
2018-12-01T12:35:45.877Z,8.53
2018-12-01T12:40:48.202Z,7.70
2018-12-01T12:45:50.571Z,11.15
2018-12-01T12:50:53.312Z,8.90
2018-12-01T12:55:55.376Z,11.70
2018-12-01T13:00:57.699Z,7.22
2018-12-01T13:06:00.040Z,8.88
2018-12-01T13:11:02.404Z,8.73
2018-12-01T13:16:05.035Z,11.35
2018-12-01T13:21:07.454Z,8.40
2018-12-01T13:26:09.928Z,7.33
2018-12-01T13:31:12.270Z,9.20
2018-12-01T13:36:14.671Z,7.20
2018-12-01T13:41:18.037Z,9.63
2018-12-01T13:46:22.047Z,10.17
2018-12-01T13:51:24.431Z,11.00
2018-12-01T13:56:26.799Z,10.10
2018-12-01T14:01:29.151Z,8.20
2018-12-01T14:06:31.515Z,7.87
2018-12-01T14:11:34.024Z,9.30
2018-12-01T14:16:36.453Z,7.77
2018-12-01T14:21:38.828Z,8.23
2018-12-01T14:26:41.187Z,10.73
2018-12-01T14:31:44.139Z,12.40
2018-12-01T14:36:46.532Z,10.83
2018-12-01T14:41:48.883Z,14.47
2018-12-01T14:46:54.160Z,10.40
2018-12-01T14:51:56.624Z,9.83
2018-12-01T14:56:59.677Z,14.03
2018-12-01T15:02:02.060Z,11.07
2018-12-01T15:07:04.792Z,14.93
2018-12-01T15:12:07.117Z,13.70
2018-12-01T15:17:09.495Z,16.70
2018-12-01T15:22:11.829Z,14.00
2018-12-01T15:27:14.156Z,15.23
2018-12-01T15:32:16.603Z,11.63
2018-12-01T15:37:19.011Z,13.53
2018-12-01T15:42:22.631Z,11.00
2018-12-01T15:47:25.077Z,14.80
2018-12-01T15:52:27.529Z,16.20
2018-12-01T15:57:29.955Z,14.80
2018-12-01T16:02:32.372Z,18.87
2018-12-01T16:07:34.829Z,19.43
2018-12-01T16:12:37.175Z,18.30
2018-12-01T16:17:39.615Z,19.93
2018-12-01T16:22:41.991Z,15.00
2018-12-01T16:27:45.104Z,13.87
2018-12-01T16:32:48.818Z,19.67
2018-12-01T16:37:51.964Z,12.83
2018-12-01T16:42:55.268Z,14.87
2018-12-01T16:47:57.696Z,12.07
2018-12-01T16:53:00.659Z,16.47
2018-12-01T16:58:03.071Z,14.87
2018-12-01T17:03:05.999Z,18.73
2018-12-01T17:08:08.376Z,16.40
2018-12-01T17:13:10.769Z,20.60
2018-12-01T17:18:13.414Z,18.77
2018-12-01T17:23:16.492Z,21.57
2018-12-01T17:28:20.079Z,20.03
2018-12-01T17:33:28.171Z,23.53
2018-12-01T17:38:30.593Z,16.70
2018-12-01T17:43:37.276Z,19.27
2018-12-01T17:48:40.797Z,18.97
2018-12-01T17:53:45.679Z,18.13
2018-12-01T17:58:48.759Z,19.03
2018-12-01T18:03:52.194Z,16.63
2018-12-01T18:08:54.592Z,16.83
2018-12-01T18:13:56.973Z,19.10
2018-12-01T18:18:59.398Z,19.83
2018-12-01T18:24:01.752Z,18.93
2018-12-01T18:29:05.651Z,20.87
2018-12-01T18:34:11.559Z,23.87
2018-12-01T18:39:18.380Z,20.83
2018-12-01T18:44:20.783Z,23.53
2018-12-01T18:49:23.194Z,22.33
2018-12-01T18:54:25.616Z,19.63
2018-12-01T18:59:27.971Z,21.33
2018-12-01T19:04:30.284Z,28.10
2018-12-01T19:09:32.623Z,23.17
2018-12-01T19:14:35.033Z,21.40
2018-12-01T19:19:38.487Z,24.07
2018-12-01T19:24:40.828Z,27.50
2018-12-01T19:29:43.151Z,26.07
2018-12-01T19:34:45.597Z,21.17
2018-12-01T19:39:48.004Z,30.60
2018-12-01T19:44:50.450Z,25.33
2018-12-01T19:49:52.849Z,21.83
2018-12-01T19:54:55.255Z,29.17
2018-12-01T19:59:57.648Z,24.83
2018-12-01T20:05:00.006Z,24.60
2018-12-01T20:10:02.627Z,23.03
2018-12-01T20:15:15.819Z,24.37
2018-12-01T20:20:18.269Z,23.90
2018-12-01T20:25:20.827Z,21.97
2018-12-01T20:30:23.174Z,27.20
2018-12-01T20:35:35.466Z,19.73
2018-12-01T20:40:37.795Z,20.83
2018-12-01T20:45:40.306Z,20.57
2018-12-01T20:50:42.829Z,20.80
2018-12-01T20:55:47.935Z,20.53
2018-12-01T21:00:50.308Z,21.27
2018-12-01T21:05:52.678Z,21.20
2018-12-01T21:10:56.939Z,19.37
2018-12-01T21:15:59.390Z,24.37
2018-12-01T21:21:08.534Z,20.37
2018-12-01T21:26:10.959Z,19.50
2018-12-01T21:31:13.320Z,19.10
2018-12-01T21:36:15.694Z,19.13
2018-12-01T21:41:18.068Z,16.47
2018-12-01T21:46:20.439Z,17.53
2018-12-01T21:51:22.883Z,20.83
2018-12-01T21:56:25.342Z,17.50
2018-12-01T22:01:28.482Z,20.67
2018-12-01T22:06:31.023Z,22.57
2018-12-01T22:11:33.387Z,16.87
2018-12-01T22:16:35.819Z,20.67
2018-12-01T22:21:38.295Z,19.43
2018-12-01T22:26:40.643Z,16.70
2018-12-01T22:31:42.991Z,16.57
2018-12-01T22:36:45.338Z,16.50
2018-12-01T22:41:47.760Z,20.17
2018-12-01T22:46:50.161Z,17.63
2018-12-01T22:51:52.620Z,18.40
2018-12-01T22:56:55.014Z,19.43
2018-12-01T23:01:57.454Z,20.77
2018-12-01T23:07:00.112Z,19.77
2018-12-01T23:12:02.487Z,20.77
2018-12-01T23:17:05.104Z,20.77
2018-12-01T23:22:07.519Z,20.43
2018-12-01T23:27:09.879Z,18.53
2018-12-01T23:32:12.248Z,20.00
2018-12-01T23:37:14.640Z,22.67
2018-12-01T23:42:17.025Z,21.87
2018-12-01T23:47:19.381Z,20.23
2018-12-01T23:52:21.845Z,18.67
2018-12-01T23:57:24.991Z,20.50
